Time;durP1;ratioP1;P1;durP2;ratioP2;P2;SDS_P1;SDS_P2;PMS_P1;PMS_P2;Temp;Humidity;BMP_temperature;BMP_pressure;BME280_temperature;BME280_humidity;BME280_pressure;Samples;Min_cycle;Max_cycle;Signal;HPM_P1;HPM_P2
2022/01/14 00:02:23;;;;;;;;;;;5.60;95.30;;;;;;4988065;28;20000;-87
2022/01/14 00:04:50;;;;;;;;;;;5.50;95.20;;;;;;4986415;28;19943;-87
2022/01/14 00:07:17;;;;;;;;;;;5.50;95.60;;;;;;5001226;28;19913;-87
2022/01/14 00:09:44;;;;;;;;;;;5.50;95.20;;;;;;4990511;28;19913;-87
2022/01/14 00:12:16;;;;;;;;;;;5.50;95.20;;;;;;4984046;28;19914;-87
2022/01/14 00:14:58;;;;;;;;;;;5.50;95.20;;;;;;4991279;28;19913;-87
2022/01/14 00:17:25;;;;;;;;;;;5.50;95.20;;;;;;4986467;28;19914;-87
2022/01/14 00:19:52;;;;;;;;;;;5.50;95.20;;;;;;4983579;28;20145;-87
2022/01/14 00:22:19;;;;;;;;;;;5.40;95.20;;;;;;4993189;28;19918;-87
2022/01/14 00:33:16;;;;;;;;;;;5.40;95.20;;;;;;4931554;28;19914;-87
2022/01/14 00:35:43;;;;;;;;;;;5.40;95.20;;;;;;4929016;28;20313;-87
2022/01/14 00:38:11;;;;;;;;;;;5.40;95.20;;;;;;4975674;28;19918;-87
2022/01/14 00:40:38;;;;;;;;;;;5.40;95.20;;;;;;4980143;28;19913;-87
2022/01/14 00:43:05;;;;;;;;;;;5.40;95.20;;;;;;4994867;28;19914;-87
2022/01/14 00:45:32;;;;;;;;;;;5.40;95.20;;;;;;4995281;28;19917;-87
2022/01/14 00:48:00;;;;;;;;;;;5.30;95.20;;;;;;4992340;28;20354;-87
2022/01/14 00:50:27;;;;;;;;;;;5.40;95.20;;;;;;4982200;28;19913;-87
2022/01/14 00:52:53;;;;;;;;;;;5.30;95.10;;;;;;4987222;28;20243;-87
2022/01/14 00:55:43;;;;;;;;;;;5.30;95.10;;;;;;4978328;28;19914;-87
2022/01/14 01:00:55;;;;;;;;;;;5.20;95.00;;;;;;4997000;28;20004;-87
2022/01/14 01:03:22;;;;;;;;;;;5.20;95.00;;;;;;4982738;28;19917;-87
2022/01/14 01:05:49;;;;;;;;;;;5.20;95.00;;;;;;4982006;28;19921;-87
2022/01/14 01:08:21;;;;;;;;;;;5.20;95.00;;;;;;4988827;28;19922;-87
2022/01/14 01:10:50;;;;;;;;;;;5.10;95.00;;;;;;4978353;28;19914;-87
2022/01/14 01:13:28;;;;;;;;;;;5.10;95.00;;;;;;4981725;28;19914;-87
2022/01/14 01:15:56;;;;;;;;;;;5.10;95.00;;;;;;4994017;28;19918;-87
2022/01/14 01:18:23;;;;;;;;;;;5.10;95.00;;;;;;4990983;28;19928;-87
2022/01/14 01:20:51;;;;;;;;;;;5.00;95.30;;;;;;4982717;28;20468;-87
2022/01/14 01:23:18;;;;;;;;;;;5.10;95.30;;;;;;4984253;28;20318;-87
2022/01/14 01:25:50;;;;;;;;;;;5.00;94.90;;;;;;4983776;28;19940;-87
2022/01/14 01:28:17;;;;;;;;;;;5.00;94.90;;;;;;5000442;28;19913;-87
2022/01/14 01:30:51;;;;;;;;;;;5.00;94.90;;;;;;4993331;28;20310;-87
2022/01/14 01:33:19;;;;;;;;;;;5.00;94.90;;;;;;4997228;28;19924;-87
2022/01/14 01:35:46;;;;;;;;;;;4.90;94.90;;;;;;4982843;28;19929;-87
2022/01/14 01:38:17;;;;;;;;;;;4.90;94.80;;;;;;5003221;28;19924;-87
2022/01/14 01:40:45;;;;;;;;;;;4.90;94.80;;;;;;4983902;28;19959;-87
2022/01/14 01:43:12;;;;;;;;;;;4.90;94.80;;;;;;4990881;28;19923;-87
2022/01/14 01:45:40;;;;;;;;;;;4.80;94.70;;;;;;4995048;28;19913;-87
2022/01/14 01:48:07;;;;;;;;;;;4.80;94.70;;;;;;4995823;28;19919;-87
2022/01/14 01:50:36;;;;;;;;;;;4.80;94.80;;;;;;4984194;28;20195;-87
2022/01/14 01:53:04;;;;;;;;;;;4.80;94.70;;;;;;4986444;28;20355;-87
2022/01/14 01:55:31;;;;;;;;;;;4.70;94.70;;;;;;4992802;28;20236;-87
2022/01/14 01:57:58;;;;;;;;;;;4.70;94.70;;;;;;5001424;28;19913;-87
2022/01/14 02:00:26;;;;;;;;;;;4.60;94.60;;;;;;4990873;28;20276;-87
2022/01/14 02:02:54;;;;;;;;;;;4.60;94.60;;;;;;5017964;28;19917;-87
2022/01/14 02:05:22;;;;;;;;;;;4.50;94.40;;;;;;5001597;28;19922;-87
2022/01/14 02:07:49;;;;;;;;;;;4.50;94.40;;;;;;4984547;28;20019;-87
2022/01/14 02:10:16;;;;;;;;;;;4.50;94.40;;;;;;4981484;28;19922;-87
2022/01/14 02:12:50;;;;;;;;;;;4.40;94.40;;;;;;4976732;28;20191;-87
2022/01/14 02:15:43;;;;;;;;;;;4.40;94.30;;;;;;4999636;28;20388;-87
2022/01/14 02:23:25;;;;;;;;;;;4.20;94.20;;;;;;4979378;28;20402;-87
2022/01/14 02:25:52;;;;;;;;;;;4.20;94.20;;;;;;4991866;28;19936;-87
2022/01/14 02:28:20;;;;;;;;;;;4.10;94.20;;;;;;4989683;28;19914;-87
2022/01/14 02:30:48;;;;;;;;;;;4.10;94.20;;;;;;4985300;28;20216;-87
2022/01/14 02:33:16;;;;;;;;;;;4.00;94.20;;;;;;4990090;28;19913;-87
2022/01/14 02:35:44;;;;;;;;;;;4.00;94.20;;;;;;4978668;28;19925;-87
2022/01/14 02:38:12;;;;;;;;;;;4.00;94.20;;;;;;4997063;28;20208;-87
2022/01/14 02:40:39;;;;;;;;;;;4.00;94.20;;;;;;4977489;28;19933;-87
2022/01/14 02:43:12;;;;;;;;;;;3.90;94.10;;;;;;4992469;28;20337;-87
2022/01/14 02:45:40;;;;;;;;;;;3.90;94.10;;;;;;4999186;28;20186;-87
2022/01/14 02:48:07;;;;;;;;;;;3.90;94.10;;;;;;5003166;28;19922;-87
2022/01/14 02:50:53;;;;;;;;;;;3.90;94.10;;;;;;4997561;28;19920;-87
2022/01/14 02:55:58;;;;;;;;;;;3.80;94.10;;;;;;4979484;28;20121;-87
2022/01/14 02:58:27;;;;;;;;;;;3.80;94.10;;;;;;4983860;28;19920;-87
2022/01/14 03:00:53;;;;;;;;;;;3.80;94.10;;;;;;4989142;28;19914;-87
2022/01/14 03:03:23;;;;;;;;;;;3.80;94.10;;;;;;5015252;28;19917;-87
2022/01/14 03:05:53;;;;;;;;;;;3.70;94.10;;;;;;4996331;28;20276;-87
2022/01/14 03:08:21;;;;;;;;;;;3.70;94.10;;;;;;4996542;28;19913;-87
2022/01/14 03:10:49;;;;;;;;;;;3.70;94.00;;;;;;4985225;28;20592;-87
2022/01/14 03:13:16;;;;;;;;;;;3.60;94.00;;;;;;4988545;28;19922;-87
2022/01/14 03:15:43;;;;;;;;;;;3.60;94.00;;;;;;4982375;28;20096;-87
2022/01/14 03:18:10;;;;;;;;;;;3.60;94.10;;;;;;4997773;28;20381;-87
2022/01/14 03:20:48;;;;;;;;;;;3.60;94.10;;;;;;4972157;28;19917;-87
2022/01/14 03:23:15;;;;;;;;;;;3.60;94.10;;;;;;4999383;28;19917;-87
2022/01/14 03:25:52;;;;;;;;;;;3.50;94.10;;;;;;4968290;28;19913;-87
2022/01/14 03:28:21;;;;;;;;;;;3.50;94.10;;;;;;4980143;28;19917;-87
2022/01/14 03:30:48;;;;;;;;;;;3.50;94.20;;;;;;4992961;28;20106;-87
2022/01/14 03:33:15;;;;;;;;;;;3.50;94.10;;;;;;4987981;28;19913;-87
2022/01/14 03:35:42;;;;;;;;;;;3.50;94.10;;;;;;4990734;28;19918;-87
2022/01/14 03:38:09;;;;;;;;;;;3.50;94.10;;;;;;4992331;28;19914;-87
2022/01/14 03:40:36;;;;;;;;;;;3.50;94.10;;;;;;4976034;28;20606;-87
2022/01/14 03:43:03;;;;;;;;;;;3.40;94.00;;;;;;5000257;28;19924;-87
2022/01/14 03:45:30;;;;;;;;;;;3.40;94.10;;;;;;4974976;28;19936;-86
2022/01/14 03:47:57;;;;;;;;;;;3.40;94.10;;;;;;4987960;28;20137;-86
2022/01/14 03:50:25;;;;;;;;;;;3.40;94.10;;;;;;4987387;28;19920;-87
2022/01/14 03:52:52;;;;;;;;;;;3.40;94.00;;;;;;4995249;28;20194;-87
2022/01/14 03:55:19;;;;;;;;;;;3.40;94.00;;;;;;4988900;28;19924;-87
2022/01/14 03:57:46;;;;;;;;;;;3.30;94.00;;;;;;4981222;28;20105;-87
2022/01/14 04:00:13;;;;;;;;;;;3.40;94.00;;;;;;4993232;28;20271;-87
2022/01/14 04:02:40;;;;;;;;;;;3.30;94.00;;;;;;4982191;28;20053;-86
2022/01/14 04:05:07;;;;;;;;;;;3.30;94.00;;;;;;4998371;28;20396;-86
2022/01/14 04:07:34;;;;;;;;;;;3.30;94.00;;;;;;4982742;28;19913;-86
2022/01/14 04:10:01;;;;;;;;;;;3.30;94.00;;;;;;4993337;28;19922;-86
2022/01/14 04:12:57;;;;;;;;;;;3.30;94.00;;;;;;4977441;28;19920;-86
2022/01/14 04:15:37;;;;;;;;;;;3.20;93.90;;;;;;4990806;28;19917;-86
2022/01/14 04:18:05;;;;;;;;;;;3.20;93.90;;;;;;4978640;28;19920;-86
2022/01/14 04:20:32;;;;;;;;;;;3.20;93.90;;;;;;4983044;28;19913;-86
2022/01/14 04:22:59;;;;;;;;;;;3.20;93.90;;;;;;4985495;28;19928;-86
2022/01/14 04:25:26;;;;;;;;;;;3.10;93.90;;;;;;4992874;28;19948;-86
2022/01/14 04:27:53;;;;;;;;;;;3.10;93.90;;;;;;4982090;28;19913;-86
2022/01/14 04:30:20;;;;;;;;;;;3.10;93.90;;;;;;4992039;28;20301;-86
2022/01/14 04:32:46;;;;;;;;;;;3.10;93.90;;;;;;4981278;28;20157;-86
2022/01/14 04:35:13;;;;;;;;;;;3.10;94.00;;;;;;4996958;28;19914;-86
2022/01/14 04:37:40;;;;;;;;;;;3.00;93.90;;;;;;4968319;28;20035;-86
2022/01/14 04:40:08;;;;;;;;;;;3.00;94.00;;;;;;4969763;28;19914;-86
2022/01/14 04:42:36;;;;;;;;;;;3.00;94.00;;;;;;4959859;28;19914;-86
2022/01/14 04:45:03;;;;;;;;;;;3.00;94.00;;;;;;4993546;28;19928;-86
2022/01/14 04:49:58;;;;;;;;;;;3.00;94.00;;;;;;4994055;28;19919;-86
2022/01/14 04:52:26;;;;;;;;;;;3.00;94.00;;;;;;4996016;28;20396;-86
2022/01/14 04:54:52;;;;;;;;;;;2.90;94.00;;;;;;4975897;28;20210;-86
2022/01/14 04:57:21;;;;;;;;;;;3.00;94.10;;;;;;4972363;28;19918;-86
2022/01/14 04:59:49;;;;;;;;;;;3.00;94.10;;;;;;4977901;28;20115;-86
2022/01/14 05:02:16;;;;;;;;;;;3.00;94.20;;;;;;4968813;28;19921;-86
2022/01/14 05:04:44;;;;;;;;;;;3.00;94.20;;;;;;4964484;28;19932;-86
2022/01/14 05:07:21;;;;;;;;;;;3.00;94.30;;;;;;4993276;28;19924;-86
2022/01/14 05:09:57;;;;;;;;;;;3.10;94.40;;;;;;4966419;28;20252;-86
2022/01/14 05:12:24;;;;;;;;;;;3.20;94.50;;;;;;4993710;28;19928;-86
2022/01/14 05:14:51;;;;;;;;;;;3.20;94.60;;;;;;4959051;28;19940;-86
2022/01/14 05:17:18;;;;;;;;;;;3.20;94.60;;;;;;4950023;28;19922;-86
2022/01/14 05:19:45;;;;;;;;;;;3.30;94.70;;;;;;4986499;28;20217;-86
2022/01/14 05:22:12;;;;;;;;;;;3.30;94.70;;;;;;4973037;28;19952;-87
2022/01/14 05:24:39;;;;;;;;;;;3.40;94.70;;;;;;4983701;28;20445;-87
2022/01/14 05:27:06;;;;;;;;;;;3.40;94.70;;;;;;4997020;28;19918;-87
2022/01/14 05:29:33;;;;;;;;;;;3.50;94.80;;;;;;4963228;28;19914;-87
2022/01/14 05:32:04;;;;;;;;;;;3.50;94.70;;;;;;4967293;28;20334;-87
2022/01/14 05:34:31;;;;;;;;;;;3.50;94.80;;;;;;4968307;28;19918;-87
2022/01/14 05:36:59;;;;;;;;;;;3.60;94.80;;;;;;4983906;28;19933;-87
2022/01/14 05:39:26;;;;;;;;;;;3.60;94.90;;;;;;5012530;28;19914;-87
2022/01/14 05:41:53;;;;;;;;;;;3.70;94.90;;;;;;4989539;28;19914;-87
2022/01/14 05:44:20;;;;;;;;;;;3.70;94.90;;;;;;4993784;28;20302;-87
2022/01/14 05:46:47;;;;;;;;;;;3.70;94.90;;;;;;4993553;28;20116;-87
2022/01/14 05:49:14;;;;;;;;;;;3.70;94.90;;;;;;4994547;28;19993;-87
2022/01/14 05:51:41;;;;;;;;;;;3.80;95.00;;;;;;4982173;28;20133;-87
2022/01/14 05:54:08;;;;;;;;;;;3.80;95.00;;;;;;5000628;28;20264;-87
2022/01/14 05:56:35;;;;;;;;;;;3.80;95.00;;;;;;5011111;28;19914;-87
2022/01/14 05:59:02;;;;;;;;;;;3.80;95.00;;;;;;5000597;28;19923;-87
2022/01/14 06:01:30;;;;;;;;;;;3.90;95.00;;;;;;4979457;28;19923;-87
2022/01/14 06:03:58;;;;;;;;;;;3.90;95.00;;;;;;4981401;28;20122;-88
2022/01/14 06:06:25;;;;;;;;;;;3.90;95.00;;;;;;5013500;28;20374;-87
2022/01/14 06:08:51;;;;;;;;;;;4.00;95.10;;;;;;4976552;28;19918;-87
2022/01/14 06:11:19;;;;;;;;;;;4.00;95.10;;;;;;4995396;28;19913;-87
2022/01/14 06:13:46;;;;;;;;;;;4.00;95.10;;;;;;4981324;28;19914;-87
2022/01/14 06:16:14;;;;;;;;;;;4.00;95.10;;;;;;4977752;28;19921;-87
2022/01/14 06:18:41;;;;;;;;;;;4.00;95.10;;;;;;4986459;28;19928;-87
2022/01/14 06:21:08;;;;;;;;;;;4.00;95.10;;;;;;4983596;28;19920;-87
2022/01/14 06:23:35;;;;;;;;;;;4.10;95.10;;;;;;4983093;28;20055;-87
2022/01/14 06:26:02;;;;;;;;;;;4.00;95.10;;;;;;4990681;28;20114;-87
2022/01/14 06:28:29;;;;;;;;;;;4.10;95.10;;;;;;4997559;28;19913;-87
2022/01/14 06:30:56;;;;;;;;;;;4.10;95.10;;;;;;4972793;28;20189;-87
2022/01/14 06:33:23;;;;;;;;;;;4.10;95.10;;;;;;4992037;28;19924;-87
2022/01/14 06:35:50;;;;;;;;;;;4.10;95.10;;;;;;4973667;28;20099;-87
2022/01/14 06:38:17;;;;;;;;;;;4.10;95.10;;;;;;4993853;28;19917;-87
2022/01/14 06:40:46;;;;;;;;;;;4.10;95.10;;;;;;4974217;28;19921;-87
2022/01/14 06:43:16;;;;;;;;;;;4.10;95.20;;;;;;4999063;28;19913;-87
2022/01/14 06:45:43;;;;;;;;;;;4.10;95.10;;;;;;4977112;28;19925;-87
2022/01/14 06:48:10;;;;;;;;;;;4.10;95.10;;;;;;4996385;28;19933;-87
2022/01/14 06:50:37;;;;;;;;;;;4.10;95.00;;;;;;4984326;28;19920;-87
2022/01/14 06:53:04;;;;;;;;;;;4.10;95.00;;;;;;4978379;28;20495;-87
2022/01/14 06:55:31;;;;;;;;;;;4.00;94.90;;;;;;4989607;28;19913;-87
2022/01/14 06:57:57;;;;;;;;;;;4.00;94.90;;;;;;4986131;28;19941;-87
2022/01/14 07:00:25;;;;;;;;;;;4.00;94.80;;;;;;4981850;28;20298;-87
2022/01/14 07:02:52;;;;;;;;;;;3.90;94.80;;;;;;4993385;28;19936;-87
2022/01/14 07:05:19;;;;;;;;;;;3.90;94.70;;;;;;4998185;28;19927;-87
2022/01/14 07:07:46;;;;;;;;;;;3.80;94.60;;;;;;4986590;28;19928;-87
2022/01/14 07:10:13;;;;;;;;;;;3.80;94.60;;;;;;4985019;28;19921;-87
2022/01/14 07:12:41;;;;;;;;;;;3.70;94.60;;;;;;4995989;28;20314;-87
2022/01/14 07:15:10;;;;;;;;;;;3.60;94.60;;;;;;4984512;28;19924;-87
2022/01/14 07:17:37;;;;;;;;;;;3.60;94.60;;;;;;4993385;28;20222;-87
2022/01/14 07:20:06;;;;;;;;;;;3.50;94.50;;;;;;4993134;28;20232;-87
2022/01/14 07:22:34;;;;;;;;;;;3.50;94.50;;;;;;4983629;28;19921;-87
2022/01/14 07:25:01;;;;;;;;;;;3.50;94.60;;;;;;4984133;28;19918;-87
2022/01/14 07:27:27;;;;;;;;;;;3.40;94.50;;;;;;4980309;28;19918;-87
2022/01/14 07:29:55;;;;;;;;;;;3.40;94.50;;;;;;4994230;28;19922;-87
2022/01/14 07:32:22;;;;;;;;;;;3.30;94.50;;;;;;4980708;28;19925;-87
2022/01/14 07:34:49;;;;;;;;;;;3.30;94.50;;;;;;4988523;28;19918;-87
2022/01/14 07:37:16;;;;;;;;;;;3.30;94.50;;;;;;4996203;28;19917;-87
2022/01/14 07:39:43;;;;;;;;;;;3.30;94.50;;;;;;4984552;28;19920;-87
2022/01/14 07:42:11;;;;;;;;;;;3.20;94.40;;;;;;4981893;28;19914;-87
2022/01/14 07:44:38;;;;;;;;;;;3.20;94.40;;;;;;4976953;28;20408;-87
2022/01/14 07:47:06;;;;;;;;;;;3.20;94.40;;;;;;4983172;28;19931;-87
2022/01/14 07:49:32;;;;;;;;;;;3.20;94.40;;;;;;4978884;28;19917;-87
2022/01/14 07:52:00;;;;;;;;;;;3.10;94.40;;;;;;4990468;28;19961;-87
2022/01/14 07:54:27;;;;;;;;;;;3.10;94.40;;;;;;4970182;28;19917;-87
2022/01/14 07:56:57;;;;;;;;;;;3.10;94.40;;;;;;4966274;28;19920;-87
2022/01/14 07:59:26;;;;;;;;;;;3.10;94.40;;;;;;4982631;28;20462;-87
2022/01/14 08:01:58;;;;;;;;;;;3.10;94.50;;;;;;4956329;28;20008;-87
2022/01/14 08:04:28;;;;;;;;;;;3.10;94.50;;;;;;4960730;28;20374;-87
2022/01/14 08:06:58;;;;;;;;;;;3.10;94.50;;;;;;4994805;28;19925;-87
2022/01/14 08:09:25;;;;;;;;;;;3.10;94.50;;;;;;4970715;28;19925;-87
2022/01/14 08:11:52;;;;;;;;;;;3.10;94.60;;;;;;4982875;28;20109;-87
2022/01/14 08:14:19;;;;;;;;;;;3.10;94.60;;;;;;4972913;28;19913;-87
2022/01/14 08:16:47;;;;;;;;;;;3.10;94.70;;;;;;4981419;28;20198;-87
2022/01/14 08:19:13;;;;;;;;;;;3.10;94.70;;;;;;4963146;28;19920;-87
2022/01/14 08:21:40;;;;;;;;;;;3.10;94.80;;;;;;4970141;28;20146;-87
2022/01/14 08:24:07;;;;;;;;;;;3.20;94.90;;;;;;4963005;28;19913;-87
2022/01/14 08:26:34;;;;;;;;;;;3.20;94.90;;;;;;4976607;28;19924;-87
2022/01/14 08:29:01;;;;;;;;;;;3.30;94.90;;;;;;4985281;28;19914;-87
2022/01/14 08:31:28;;;;;;;;;;;3.30;94.90;;;;;;4995503;28;19920;-87
2022/01/14 08:33:55;;;;;;;;;;;3.30;95.00;;;;;;4970230;28;20414;-87
2022/01/14 08:36:23;;;;;;;;;;;3.40;95.10;;;;;;4968713;28;19924;-87
2022/01/14 08:38:51;;;;;;;;;;;3.40;95.10;;;;;;4984609;28;20406;-87
2022/01/14 08:41:19;;;;;;;;;;;3.40;95.20;;;;;;5012881;28;19913;-87
2022/01/14 08:43:47;;;;;;;;;;;3.60;95.30;;;;;;4979648;28;19928;-87
2022/01/14 08:46:14;;;;;;;;;;;3.60;95.40;;;;;;4996444;28;19922;-87
2022/01/14 08:48:41;;;;;;;;;;;3.70;95.60;;;;;;4988434;28;20131;-87
2022/01/14 08:51:08;;;;;;;;;;;3.90;95.80;;;;;;4982548;28;20368;-87
2022/01/14 08:53:35;;;;;;;;;;;4.10;96.00;;;;;;4993765;28;19920;-87
2022/01/14 08:56:02;;;;;;;;;;;4.30;96.20;;;;;;4986210;28;19933;-87
2022/01/14 08:58:28;;;;;;;;;;;4.40;96.20;;;;;;4964299;28;20286;-88
2022/01/14 09:00:56;;;;;;;;;;;4.60;96.40;;;;;;4975266;28;20095;-88
2022/01/14 09:03:23;;;;;;;;;;;4.80;96.40;;;;;;4999675;28;19924;-88
2022/01/14 09:05:50;;;;;;;;;;;5.00;96.40;;;;;;4988098;28;20173;-87
2022/01/14 09:08:16;;;;;;;;;;;5.10;96.40;;;;;;4996533;28;19928;-87
2022/01/14 09:10:43;;;;;;;;;;;5.30;96.30;;;;;;4972375;28;20090;-87
2022/01/14 09:13:10;;;;;;;;;;;5.40;96.30;;;;;;4992661;28;20436;-87
2022/01/14 09:15:37;;;;;;;;;;;5.50;96.20;;;;;;4982282;28;19914;-87
2022/01/14 09:18:04;;;;;;;;;;;5.60;96.20;;;;;;4998352;28;20315;-87
2022/01/14 09:20:32;;;;;;;;;;;5.60;96.10;;;;;;4988652;28;19913;-87
2022/01/14 09:22:59;;;;;;;;;;;5.70;96.00;;;;;;5016592;28;19913;-87
2022/01/14 09:25:26;;;;;;;;;;;5.70;96.00;;;;;;4982886;28;19920;-87
2022/01/14 09:27:53;;;;;;;;;;;5.80;96.10;;;;;;4993841;28;20191;-87
2022/01/14 09:30:20;;;;;;;;;;;5.90;96.20;;;;;;4988674;28;19922;-87
2022/01/14 09:32:48;;;;;;;;;;;6.10;96.30;;;;;;4987436;28;20121;-87
2022/01/14 09:35:15;;;;;;;;;;;6.30;96.40;;;;;;4992343;28;19923;-87
2022/01/14 09:37:44;;;;;;;;;;;6.50;96.60;;;;;;4977746;28;19921;-87
2022/01/14 09:40:13;;;;;;;;;;;6.70;96.80;;;;;;4992038;28;19918;-87
2022/01/14 09:42:40;;;;;;;;;;;7.00;97.10;;;;;;4994987;28;20643;-87
2022/01/14 09:45:07;;;;;;;;;;;7.40;97.40;;;;;;4995951;28;20536;-87
2022/01/14 09:47:34;;;;;;;;;;;7.80;97.60;;;;;;4978075;28;19935;-87
2022/01/14 09:50:00;;;;;;;;;;;8.20;97.80;;;;;;4998631;28;19943;-86
2022/01/14 09:52:28;;;;;;;;;;;8.60;97.90;;;;;;4980148;28;20378;-86
2022/01/14 09:54:55;;;;;;;;;;;9.10;98.00;;;;;;4986379;28;19972;-86
2022/01/14 09:57:22;;;;;;;;;;;9.50;98.00;;;;;;4995580;28;19924;-86
2022/01/14 09:59:48;;;;;;;;;;;9.90;97.90;;;;;;4996743;28;20229;-86
2022/01/14 10:02:29;;;;;;;;;;;10.30;98.00;;;;;;4984912;28;19913;-86
2022/01/14 10:04:56;;;;;;;;;;;10.70;97.90;;;;;;4994477;28;19914;-86
2022/01/14 10:07:22;;;;;;;;;;;11.20;97.80;;;;;;4990366;28;20012;-86
2022/01/14 10:09:56;;;;;;;;;;;11.50;97.70;;;;;;4991902;28;20207;-86
2022/01/14 10:12:24;;;;;;;;;;;11.90;97.40;;;;;;5005042;28;19917;-86
2022/01/14 10:14:53;;;;;;;;;;;12.20;97.10;;;;;;4994991;28;19928;-86
2022/01/14 10:17:20;;;;;;;;;;;12.50;96.90;;;;;;4985157;28;19913;-86
2022/01/14 10:19:48;;;;;;;;;;;12.80;96.70;;;;;;4984943;28;20091;-85
2022/01/14 10:22:18;;;;;;;;;;;13.00;96.50;;;;;;4981996;28;19922;-85
2022/01/14 10:24:58;;;;;;;;;;;13.30;96.30;;;;;;4996284;28;19913;-85
2022/01/14 10:27:32;;;;;;;;;;;13.50;96.00;;;;;;5002215;28;20022;-86
2022/01/14 10:30:18;;;;;;;;;;;13.70;95.90;;;;;;5003631;28;20413;-86
2022/01/14 10:32:51;;;;;;;;;;;14.00;95.90;;;;;;4990929;28;19914;-86
2022/01/14 10:35:19;;;;;;;;;;;14.20;95.80;;;;;;4970434;28;19921;-86
2022/01/14 10:37:47;;;;;;;;;;;14.50;95.80;;;;;;5006397;28;19927;-86
2022/01/14 10:40:21;;;;;;;;;;;14.80;95.60;;;;;;4968172;28;19913;-86
2022/01/14 10:42:50;;;;;;;;;;;15.00;95.40;;;;;;4986639;28;19918;-86
2022/01/14 10:45:27;;;;;;;;;;;15.20;95.40;;;;;;5001105;28;19917;-85
2022/01/14 10:47:56;;;;;;;;;;;15.40;95.30;;;;;;4996310;28;19930;-85
2022/01/14 10:50:27;;;;;;;;;;;15.60;95.00;;;;;;4968629;28;19913;-85
2022/01/14 10:52:54;;;;;;;;;;;15.90;95.10;;;;;;4995828;28;19914;-85
2022/01/14 10:55:28;;;;;;;;;;;16.10;95.10;;;;;;4976579;28;20005;-85
2022/01/14 10:57:55;;;;;;;;;;;16.30;94.80;;;;;;4995765;28;19924;-85
2022/01/14 11:00:23;;;;;;;;;;;16.60;94.90;;;;;;4981646;28;20096;-85
2022/01/14 11:02:52;;;;;;;;;;;16.80;94.40;;;;;;4987709;28;19913;-85
2022/01/14 11:05:20;;;;;;;;;;;17.00;94.20;;;;;;4995411;28;20696;-85
2022/01/14 11:07:48;;;;;;;;;;;17.20;94.00;;;;;;5005769;28;20408;-85
2022/01/14 11:10:25;;;;;;;;;;;17.40;93.70;;;;;;5006159;28;20402;-85
2022/01/14 11:12:53;;;;;;;;;;;17.60;93.90;;;;;;4983694;28;20005;-85
2022/01/14 11:15:22;;;;;;;;;;;17.80;93.70;;;;;;4984033;28;19920;-85
2022/01/14 11:17:53;;;;;;;;;;;18.00;93.70;;;;;;4997658;28;20286;-85
2022/01/14 11:20:25;;;;;;;;;;;18.30;93.70;;;;;;4982688;28;19921;-85
2022/01/14 11:25:39;;;;;;;;;;;18.70;93.70;;;;;;4997891;28;19924;-85
2022/01/14 11:28:07;;;;;;;;;;;19.00;93.40;;;;;;4980067;28;19918;-85
2022/01/14 11:30:40;;;;;;;;;;;19.20;93.10;;;;;;4985641;28;20297;-85
2022/01/14 11:33:08;;;;;;;;;;;19.40;93.10;;;;;;4993278;28;19914;-85
2022/01/14 11:35:36;;;;;;;;;;;19.60;92.90;;;;;;5011734;28;20286;-85
2022/01/14 11:38:23;;;;;;;;;;;19.80;92.40;;;;;;4982430;28;20393;-85
2022/01/14 11:40:51;;;;;;;;;;;20.00;92.50;;;;;;4995973;28;19913;-85
2022/01/14 11:43:36;;;;;;;;;;;20.20;92.60;;;;;;4978514;28;19918;-85
2022/01/14 11:46:03;;;;;;;;;;;20.30;92.50;;;;;;4982188;28;20401;-85
2022/01/14 11:48:36;;;;;;;;;;;20.60;91.90;;;;;;4996550;28;19931;-85
2022/01/14 11:51:07;;;;;;;;;;;20.70;91.20;;;;;;4994154;28;19928;-85
2022/01/14 11:53:39;;;;;;;;;;;20.80;91.00;;;;;;4980680;28;19924;-85
2022/01/14 11:56:26;;;;;;;;;;;20.90;90.60;;;;;;4993731;28;19928;-84
2022/01/14 11:58:53;;;;;;;;;;;20.90;90.60;;;;;;4984806;28;19920;-84
2022/01/14 12:01:33;;;;;;;;;;;21.00;90.30;;;;;;4998881;28;20314;-84
2022/01/14 12:04:01;;;;;;;;;;;21.00;89.60;;;;;;4994205;28;19914;-85
2022/01/14 12:06:48;;;;;;;;;;;21.00;89.80;;;;;;4991163;28;20011;-84
2022/01/14 12:09:15;;;;;;;;;;;21.10;90.00;;;;;;4981006;28;19925;-84
2022/01/14 12:11:42;;;;;;;;;;;21.10;90.10;;;;;;4986740;28;20195;-85
2022/01/14 12:14:11;;;;;;;;;;;21.20;90.10;;;;;;4980862;28;19937;-84
2022/01/14 12:16:47;;;;;;;;;;;21.30;90.30;;;;;;4986333;28;19920;-84
2022/01/14 12:19:17;;;;;;;;;;;21.30;90.20;;;;;;4996529;28;19922;-84
2022/01/14 12:21:43;;;;;;;;;;;21.40;90.00;;;;;;5006279;28;19914;-84
2022/01/14 12:24:21;;;;;;;;;;;21.50;89.90;;;;;;4982408;28;20517;-84
2022/01/14 12:26:54;;;;;;;;;;;21.50;89.20;;;;;;4991497;28;20446;-84
2022/01/14 12:29:30;;;;;;;;;;;21.40;88.70;;;;;;4988336;28;20391;-84
2022/01/14 12:32:00;;;;;;;;;;;21.40;87.40;;;;;;4993498;28;19913;-84
2022/01/14 12:34:27;;;;;;;;;;;21.30;86.30;;;;;;5007447;28;20394;-84
2022/01/14 12:36:54;;;;;;;;;;;21.10;86.30;;;;;;5010346;28;19996;-84
2022/01/14 12:39:21;;;;;;;;;;;20.90;86.50;;;;;;4971345;28;19921;-84
2022/01/14 12:41:55;;;;;;;;;;;20.80;86.30;;;;;;4994804;28;19921;-84
2022/01/14 12:44:23;;;;;;;;;;;20.70;85.70;;;;;;4973399;28;19926;-84
2022/01/14 12:47:05;;;;;;;;;;;20.60;86.10;;;;;;4983322;28;19916;-84
2022/01/14 12:49:35;;;;;;;;;;;20.50;86.80;;;;;;5008764;28;19951;-84
2022/01/14 12:52:36;;;;;;;;;;;20.50;87.90;;;;;;4988121;28;19914;-84
2022/01/14 12:55:08;;;;;;;;;;;20.50;88.50;;;;;;4989307;28;19913;-84
2022/01/14 12:57:35;;;;;;;;;;;20.60;87.70;;;;;;4997585;28;19913;-84
2022/01/14 13:00:04;;;;;;;;;;;20.60;87.40;;;;;;4981780;28;19914;-84
2022/01/14 13:02:31;;;;;;;;;;;20.50;87.50;;;;;;4968204;28;20121;-84
2022/01/14 13:05:24;;;;;;;;;;;20.50;87.80;;;;;;4996216;28;19928;-85
2022/01/14 13:07:51;;;;;;;;;;;20.50;87.70;;;;;;5007302;28;19937;-84
2022/01/14 13:10:18;;;;;;;;;;;20.50;87.10;;;;;;4991872;28;19917;-85
2022/01/14 13:12:46;;;;;;;;;;;20.40;86.70;;;;;;4981894;28;19928;-85
2022/01/14 13:15:19;;;;;;;;;;;20.40;86.80;;;;;;4985711;28;19922;-85
2022/01/14 13:17:57;;;;;;;;;;;20.30;86.90;;;;;;4979739;28;20385;-85
2022/01/14 13:20:24;;;;;;;;;;;20.30;87.10;;;;;;4986337;28;19957;-85
2022/01/14 13:22:51;;;;;;;;;;;20.30;85.00;;;;;;4993259;28;19918;-86
2022/01/14 13:25:20;;;;;;;;;;;20.20;79.20;;;;;;4990985;28;20099;-85
2022/01/14 13:27:48;;;;;;;;;;;19.90;77.30;;;;;;4981602;28;19921;-85
2022/01/14 13:30:17;;;;;;;;;;;19.50;78.20;;;;;;4992148;28;20015;-85
2022/01/14 13:32:45;;;;;;;;;;;19.10;77.60;;;;;;4983996;28;19918;-85
2022/01/14 13:35:32;;;;;;;;;;;18.80;78.10;;;;;;4985911;28;19920;-85
2022/01/14 13:38:02;;;;;;;;;;;18.40;76.90;;;;;;4991357;28;19917;-84
2022/01/14 13:40:30;;;;;;;;;;;17.90;77.80;;;;;;5003499;28;20022;-84
2022/01/14 13:43:06;;;;;;;;;;;17.50;78.30;;;;;;4977322;28;19922;-84
2022/01/14 13:45:35;;;;;;;;;;;17.10;79.10;;;;;;5008423;28;19928;-84
2022/01/14 13:48:16;;;;;;;;;;;16.80;78.40;;;;;;4976052;28;19922;-84
2022/01/14 13:50:44;;;;;;;;;;;16.40;79.00;;;;;;4997750;28;19917;-84
2022/01/14 13:53:12;;;;;;;;;;;16.10;79.40;;;;;;4996742;28;19913;-84
2022/01/14 13:55:41;;;;;;;;;;;15.80;79.90;;;;;;4999741;28;19914;-84
2022/01/14 13:58:12;;;;;;;;;;;15.50;79.90;;;;;;4969839;28;20643;-84
2022/01/14 14:00:40;;;;;;;;;;;15.30;81.60;;;;;;4995780;28;19920;-84
2022/01/14 14:03:27;;;;;;;;;;;15.10;83.00;;;;;;4981250;28;20281;-84
2022/01/14 14:05:58;;;;;;;;;;;14.90;82.90;;;;;;4999676;28;19913;-84
2022/01/14 14:11:59;;;;;;;;;;;14.60;84.70;;;;;;4997455;28;19921;-84
2022/01/14 14:16:55;;;;;;;;;;;14.40;84.90;;;;;;4997913;28;20436;-84
2022/01/14 14:19:22;;;;;;;;;;;14.30;86.10;;;;;;4974891;28;20027;-84
2022/01/14 14:22:08;;;;;;;;;;;14.20;85.50;;;;;;4998598;28;19909;-84
2022/01/14 14:24:34;;;;;;;;;;;14.10;86.10;;;;;;4996483;28;19914;-84
2022/01/14 14:27:09;;;;;;;;;;;14.00;86.10;;;;;;4996889;28;19935;-84
2022/01/14 14:29:36;;;;;;;;;;;13.90;86.20;;;;;;4999771;28;19928;-84
2022/01/14 14:32:31;;;;;;;;;;;13.80;86.50;;;;;;4994491;28;19922;-84
2022/01/14 14:34:59;;;;;;;;;;;13.70;86.50;;;;;;4982007;28;19917;-84
2022/01/14 14:37:26;;;;;;;;;;;13.60;86.30;;;;;;4989551;28;20045;-84
2022/01/14 14:39:53;;;;;;;;;;;13.60;87.20;;;;;;4996045;28;19924;-84
2022/01/14 14:42:20;;;;;;;;;;;13.50;87.00;;;;;;4993126;28;20295;-84
2022/01/14 14:44:47;;;;;;;;;;;13.50;87.50;;;;;;4983432;28;19922;-84
2022/01/14 14:47:14;;;;;;;;;;;13.40;87.80;;;;;;4993836;28;19928;-85
2022/01/14 14:49:41;;;;;;;;;;;13.40;87.30;;;;;;4999567;28;19929;-84
2022/01/14 14:52:08;;;;;;;;;;;13.30;87.50;;;;;;4987113;28;19914;-84
2022/01/14 14:54:35;;;;;;;;;;;13.20;87.60;;;;;;4997555;28;19921;-84
2022/01/14 14:57:02;;;;;;;;;;;13.20;87.70;;;;;;4997809;28;20311;-84
2022/01/14 14:59:29;;;;;;;;;;;13.10;88.10;;;;;;4984137;28;20276;-84
2022/01/14 15:01:56;;;;;;;;;;;13.10;88.40;;;;;;4999661;28;19913;-84
2022/01/14 15:04:23;;;;;;;;;;;13.00;88.20;;;;;;4992797;28;20330;-84
2022/01/14 15:06:49;;;;;;;;;;;13.00;88.90;;;;;;4966385;28;19913;-84
2022/01/14 15:09:16;;;;;;;;;;;13.00;89.20;;;;;;4992218;28;20237;-84